地図

経路データ

SID SEASON NUMBER BASIN SUBBASIN NAME ISO_TIME NATURE LAT LON WMO_WIND WMO_PRES WMO_AGENCY TRACK_TYPE DIST2LAND LANDFALL IFLAG USA_AGENCY USA_ATCF_ID USA_LAT USA_LON USA_RECORD USA_STATUS USA_WIND USA_PRES USA_SSHS USA_R34_NE USA_R34_SE USA_R34_SW USA_R34_NW USA_R50_NE USA_R50_SE USA_R50_SW USA_R50_NW USA_R64_NE USA_R64_SE USA_R64_SW USA_R64_NW USA_POCI USA_ROCI USA_RMW USA_EYE TOKYO_LAT TOKYO_LON TOKYO_GRADE TOKYO_WIND TOKYO_PRES TOKYO_R50_DIR TOKYO_R50_LONG TOKYO_R50_SHORT TOKYO_R30_DIR TOKYO_R30_LONG TOKYO_R30_SHORT TOKYO_LAND CMA_LAT CMA_LON CMA_CAT CMA_WIND CMA_PRES HKO_LAT HKO_LON HKO_CAT HKO_WIND HKO_PRES NEWDELHI_LAT NEWDELHI_LON NEWDELHI_GRADE NEWDELHI_WIND NEWDELHI_PRES NEWDELHI_CI NEWDELHI_DP NEWDELHI_POCI REUNION_LAT REUNION_LON REUNION_TYPE REUNION_WIND REUNION_PRES REUNION_TNUM REUNION_CI REUNION_RMW REUNION_R34_NE REUNION_R34_SE REUNION_R34_SW REUNION_R34_NW REUNION_R50_NE REUNION_R50_SE REUNION_R50_SW REUNION_R50_NW REUNION_R64_NE REUNION_R64_SE REUNION_R64_SW REUNION_R64_NW BOM_LAT BOM_LON BOM_TYPE BOM_WIND BOM_PRES BOM_TNUM BOM_CI BOM_RMW BOM_R34_NE BOM_R34_SE BOM_R34_SW BOM_R34_NW BOM_R50_NE BOM_R50_SE BOM_R50_SW BOM_R50_NW BOM_R64_NE BOM_R64_SE BOM_R64_SW BOM_R64_NW BOM_ROCI BOM_POCI BOM_EYE BOM_POS_METHOD BOM_PRES_METHOD NADI_LAT NADI_LON NADI_CAT NADI_WIND NADI_PRES WELLINGTON_LAT WELLINGTON_LON WELLINGTON_WIND WELLINGTON_PRES DS824_LAT DS824_LON DS824_STAGE DS824_WIND DS824_PRES TD9636_LAT TD9636_LON TD9636_STAGE TD9636_WIND TD9636_PRES TD9635_LAT TD9635_LON TD9635_WIND TD9635_PRES TD9635_ROCI NEUMANN_LAT NEUMANN_LON NEUMANN_CLASS NEUMANN_WIND NEUMANN_PRES MLC_LAT MLC_LON MLC_CLASS MLC_WIND MLC_PRES USA_GUST BOM_GUST BOM_GUST_PER REUNION_GUST REUNION_GUST_PER USA_SEAHGT USA_SEARAD_NE USA_SEARAD_SE USA_SEARAD_SW USA_SEARAD_NW STORM_SPEED STORM_DIR
1991074S11158 1991 13 SP EA NOT_NAMED 1991-03-14 12:00:00 TS -10.9000 157.500 main 259 257 O___________O_ jtwc_sh SH161991 -10.9000 157.500 15 -1 -10.9000 157.500 TC 15 5 103
1991074S11158 1991 13 SP EA NOT_NAMED 1991-03-14 15:00:00 TS -10.9525 157.740 main 266 238 P___________P_ SH161991 -10.9525 157.740 17 -1 -10.9525 157.740 TC 17 5 102
1991074S11158 1991 13 SP EA NOT_NAMED 1991-03-14 18:00:00 TS -11.0000 158.000 main 238 212 O___________O_ jtwc_sh SH161991 -11.0000 158.000 20 -1 -11.0000 158.000 TC 20 6 99
1991074S11158 1991 13 SP EA NOT_NAMED 1991-03-14 21:00:00 TS -11.0425 158.293 main 212 196 P___________P_ SH161991 -11.0425 158.293 20 -1 -11.0425 158.293 TC 20 6 100
1991074S11158 1991 13 SP EA NOT_NAMED 1991-03-15 00:00:00 TS -11.1000 158.600 main 196 182 O___________O_ jtwc_sh SH161991 -11.1000 158.600 20 -1 -11.1000 158.600 TC 20 6 105
1991074S11158 1991 13 SP EA NOT_NAMED 1991-03-15 03:00:00 TS -11.2000 158.900 main 185 179 P___________P_ SH161991 -11.2000 158.900 20 -1 -11.2000 158.900 TC 20 6 109
1991074S11158 1991 13 SP EA NOT_NAMED 1991-03-15 06:00:00 TS -11.3000 159.200 main 180 171 O___________O_ jtwc_sh SH161991 -11.3000 159.200 20 -1 -11.3000 159.200 TC 20 6 104
1991074S11158 1991 13 SP EA NOT_NAMED 1991-03-15 09:00:00 TS -11.3500 159.508 main 171 171 P___________P_ SH161991 -11.3500 159.508 20 -1 -11.3500 159.508 TC 20 6 100
1991074S11158 1991 13 SP EA NOT_NAMED 1991-03-15 12:00:00 TS -11.4000 159.800 main 179 179 O___________O_ jtwc_sh SH161991 -11.4000 159.800 20 -1 -11.4000 159.800 TC 20 6 105
1991074S11158 1991 13 SP MM NOT_NAMED 1991-03-15 15:00:00 TS -11.4925 160.058 main 183 172 P___________P_ SH161991 -11.4925 160.058 20 -1 -11.4925 160.058 TC 20 5 112
1991074S11158 1991 13 SP MM NOT_NAMED 1991-03-15 18:00:00 TS -11.6000 160.300 main 172 164 O___________O_ jtwc_sh SH161991 -11.6000 160.300 20 -1 -11.6000 160.300 TC 20 5 112
1991074S11158 1991 13 SP MM NOT_NAMED 1991-03-15 21:00:00 TS -11.6850 160.550 main 157 151 P___________P_ SH161991 -11.6850 160.550 22 -1 -11.6850 160.550 TC 22 5 112
1991074S11158 1991 13 SP MM NOT_NAMED 1991-03-16 00:00:00 TS -11.8000 160.800 main 154 148 O___________O_ jtwc_sh SH161991 -11.8000 160.800 25 -1 -11.8000 160.800 TC 25 6 119
1991074S11158 1991 13 SP MM NOT_NAMED 1991-03-16 03:00:00 TS -11.9625 161.065 main 154 149 P___________P_ SH161991 -11.9625 161.065 25 -1 -11.9625 161.065 TC 25 6 129
1991074S11158 1991 13 SP MM NOT_NAMED 1991-03-16 06:00:00 TS -12.2000 161.300 main 165 165 O___________O_ jtwc_sh SH161991 -12.2000 161.300 25 -1 -12.2000 161.300 TC 25 7 144
1991074S11158 1991 13 SP MM NOT_NAMED 1991-03-16 09:00:00 TS -12.5275 161.480 main 193 193 P___________P_ SH161991 -12.5275 161.480 25 -1 -12.5275 161.480 TC 25 8 157
1991074S11158 1991 13 SP MM NOT_NAMED 1991-03-16 12:00:00 TS -12.9000 161.600 main 236 236 O___________O_ jtwc_sh SH161991 -12.9000 161.600 25 -1 -12.9000 161.600 TC 25 7 166
1991074S11158 1991 13 SP MM NOT_NAMED 1991-03-16 15:00:00 TS -13.2425 161.658 main 268 268 P___________P_ SH161991 -13.2425 161.658 25 -1 -13.2425 161.658 TC 25 7 172
1991074S11158 1991 13 SP MM NOT_NAMED 1991-03-16 18:00:00 TS -13.6000 161.700 main 313 313 O___________O_ jtwc_sh SH161991 -13.6000 161.700 25 -1 -13.6000 161.700 TC 25 8 171
1991074S11158 1991 13 SP MM NOT_NAMED 1991-03-16 21:00:00 TS -14.0075 161.778 main 358 358 P___________P_ SH161991 -14.0075 161.778 25 -1 -14.0075 161.778 TC 25 8 166
1991074S11158 1991 13 SP MM NOT_NAMED 1991-03-17 00:00:00 TS -14.4000 161.900 main 403 403 O___________O_ jtwc_sh SH161991 -14.4000 161.900 25 -1 -14.4000 161.900 TC 25 8 159
1991074S11158 1991 13 SP MM NOT_NAMED 1991-03-17 03:00:00 TS -14.7375 162.070 main 436 436 P___________P_ SH161991 -14.7375 162.070 25 -1 -14.7375 162.070 TC 25 7 147
1991074S11158 1991 13 SP MM NOT_NAMED 1991-03-17 06:00:00 TS -15.0000 162.300 main 452 421 O___________O_ jtwc_sh SH161991 -15.0000 162.300 25 -1 -15.0000 162.300 TC 25 7 132
1991074S11158 1991 13 SP MM NOT_NAMED 1991-03-17 09:00:00 TS -15.1800 162.585 main 421 390 P___________P_ SH161991 -15.1800 162.585 25 -1 -15.1800 162.585 TC 25 7 117
1991074S11158 1991 13 SP MM NOT_NAMED 1991-03-17 12:00:00 TS -15.3000 162.900 main 390 360 O___________O_ jtwc_sh SH161991 -15.3000 162.900 25 -1 -15.3000 162.900 TC 25 6 108
1991074S11158 1991 13 SP MM NOT_NAMED 1991-03-17 15:00:00 TS -15.3850 163.223 main 360 331 P___________P_ SH161991 -15.3850 163.223 25 -1 -15.3850 163.223 TC 25 6 109
1991074S11158 1991 13 SP MM NOT_NAMED 1991-03-17 18:00:00 TS -15.5000 163.500 main 331 312 O___________O_ jtwc_sh SH161991 -15.5000 163.500 25 -1 -15.5000 163.500 TC 25 6 126
1991074S11158 1991 13 SP MM NOT_NAMED 1991-03-17 21:00:00 TS -15.7125 163.688 main 312 303 P___________P_ SH161991 -15.7125 163.688 27 -1 -15.7125 163.688 TC 27 6 150
1991074S11158 1991 13 SP MM NOT_NAMED 1991-03-18 00:00:00 TS -16.0000 163.800 main 307 305 O___________O_ jtwc_sh SH161991 -16.0000 163.800 30 -1 -16.0000 163.800 TC 30 6 165
1991074S11158 1991 13 SP MM NOT_NAMED 1991-03-18 03:00:00 TS -16.3350 163.858 main 305 305 P___________P_ SH161991 -16.3350 163.858 30 -1 -16.3350 163.858 TC 30 7 172
1991074S11158 1991 13 SP MM NOT_NAMED 1991-03-18 06:00:00 TS -16.7000 163.900 main 323 323 O___________O_ jtwc_sh SH161991 -16.7000 163.900 30 -1 -16.7000 163.900 TC 30 7 171
1991074S11158 1991 13 SP MM NOT_NAMED 1991-03-18 09:00:00 TS -17.0425 163.978 main 330 313 P___________P_ SH161991 -17.0425 163.978 30 -1 -17.0425 163.978 TC 30 7 165
1991074S11158 1991 13 SP MM NOT_NAMED 1991-03-18 12:00:00 TS -17.4000 164.100 main 313 269 O___________O_ jtwc_sh SH161991 -17.4000 164.100 30 -1 -17.4000 164.100 TC 30 8 159
1991074S11158 1991 13 SP MM NOT_NAMED 1991-03-18 15:00:00 TS -17.8000 164.285 main 269 227 P___________P_ SH161991 -17.8000 164.285 30 -1 -17.8000 164.285 TC 30 9 154
1991074S11158 1991 13 SP MM NOT_NAMED 1991-03-18 18:00:00 TS -18.2000 164.500 main 227 189 O___________O_ jtwc_sh SH161991 -18.2000 164.500 30 -1 -18.2000 164.500 TC 30 9 154
1991074S11158 1991 13 SP MM NOT_NAMED 1991-03-18 21:00:00 TS -18.5724 164.685 main 189 162 P___________P_ SH161991 -18.5724 164.685 30 -1 -18.5724 164.685 TC 30 8 152
1991074S11158 1991 13 SP MM NOT_NAMED 1991-03-19 00:00:00 TS -18.9000 164.900 main 162 143 O___________O_ jtwc_sh SH161991 -18.9000 164.900 30 -1 -18.9000 164.900 TC 30 8 139
1991074S11158 1991 13 SP MM NOT_NAMED 1991-03-19 03:00:00 TS -19.1651 165.222 main 143 139 P___________P_ SH161991 -19.1651 165.222 30 -1 -19.1651 165.222 TC 30 8 131
1991074S11158 1991 13 SP MM NOT_NAMED 1991-03-19 06:00:00 TS -19.4000 165.500 main 145 129 O___________O_ jtwc_sh SH161991 -19.4000 165.500 30 -1 -19.4000 165.500 TC 30 6 144
1991074S11158 1991 13 SP MM NOT_NAMED 1991-03-19 09:00:00 TS -19.6724 165.610 main 129 108 P___________P_ SH161991 -19.6724 165.610 30 -1 -19.6724 165.610 TC 30 5 169
1991074S11158 1991 13 SP MM NOT_NAMED 1991-03-19 12:00:00 TS -19.9000 165.600 main 108 98 O___________O_ jtwc_sh SH161991 -19.9000 165.600 30 -1 -19.9000 165.600 TC 30 4 184
1991074S11158 1991 13 SP MM NOT_NAMED 1991-03-19 15:00:00 TS -20.0296 165.597 main 98 81 P___________P_ SH161991 -20.0296 165.597 30 -1 -20.0296 165.597 TC 30 3 224
1991074S11158 1991 13 SP MM NOT_NAMED 1991-03-19 18:00:00 TS -20.1000 165.400 main 81 30 O___________O_ jtwc_sh SH161991 -20.1000 165.400 30 -1 -20.1000 165.400 TC 30 8 260
1991074S11158 1991 13 SP MM NOT_NAMED 1991-03-19 21:00:00 TS -20.1660 164.785 main 30 10 P___________P_ SH161991 -20.1660 164.785 27 -1 -20.1660 164.785 TC 27 11 265
1991074S11158 1991 13 SP MM NOT_NAMED 1991-03-20 00:00:00 TS -20.2000 164.200 main 10 10 O___________O_ jtwc_sh SH161991 -20.2000 164.200 25 -1 -20.2000 164.200 TC 25 5 269
1991074S11158 1991 13 SP MM NOT_NAMED 1991-03-20 03:00:00 TS -20.1769 164.200 main 10 10 P___________P_ SH161991 -20.1769 164.200 25 -1 -20.1769 164.200 TC 25 0 0
1991074S11158 1991 13 SP MM NOT_NAMED 1991-03-20 06:00:00 TS -20.2000 164.200 main 10 0 O___________O_ jtwc_sh SH161991 -20.2000 164.200 25 -1 -20.2000 164.200 TC 25 5 250
1991074S11158 1991 13 SP MM NOT_NAMED 1991-03-20 09:00:00 TS -20.3477 163.705 main 31 31 P___________P_ SH161991 -20.3477 163.705 25 -1 -20.3477 163.705 TC 25 12 250
1991074S11158 1991 13 SP MM NOT_NAMED 1991-03-20 12:00:00 TS -20.6000 163.000 main 109 109 O___________O_ jtwc_sh SH161991 -20.6000 163.000 25 -1 -20.6000 163.000 TC 25 14 247
1991074S11158 1991 13 SP MM NOT_NAMED 1991-03-20 15:00:00 TS -20.8898 162.322 main 189 189 P___________P_ SH161991 -20.8898 162.322 25 -1 -20.8898 162.322 TC 25 15 242
1991074S11158 1991 13 SP MM NOT_NAMED 1991-03-20 18:00:00 TS -21.3000 161.600 main 273 273 O___________O_ jtwc_sh SH161991 -21.3000 161.600 25 -1 -21.3000 161.600 TC 25 17 235
1991074S11158 1991 13 SP MM NOT_NAMED 1991-03-20 21:00:00 TS -21.8582 160.857 main 367 367 P___________P_ SH161991 -21.8582 160.857 25 -1 -21.8582 160.857 TC 25 18 229
1991074S11158 1991 13 SP MM NOT_NAMED 1991-03-21 00:00:00 TS -22.5000 160.100 main 472 O___________O_ jtwc_sh SH161991 -22.5000 160.100 25 -1 -22.5000 160.100 TC 25 19 227

デジタル台風データ・検索

IBTrACS Databaseについて

本データベースは、米国NOAAが公開する1842年以降の世界の熱帯低気圧のベストトラックデータアーカイブInternational Best Track Archive for Climate Stewardship (IBTrACS)を、ウェブで閲覧しやすい形式に変換したものです。

最終更新日:2021-12-06